sensor_id;sensor_type;location;lat;lon;timestamp;P1;durP1;ratioP1;P2;durP2;ratioP2
8982;SDS011;20979;59.850;10.660;2023-04-03T00:01:18;2.83;;;2.10;;
8982;SDS011;20979;59.850;10.660;2023-04-03T00:03:45;3.57;;;2.20;;
8982;SDS011;20979;59.850;10.660;2023-04-03T00:06:13;3.53;;;2.37;;
8982;SDS011;20979;59.850;10.660;2023-04-03T00:08:40;4.50;;;2.60;;
8982;SDS011;20979;59.850;10.660;2023-04-03T00:11:08;3.57;;;2.30;;
8982;SDS011;20979;59.850;10.660;2023-04-03T00:13:36;4.80;;;2.70;;
8982;SDS011;20979;59.850;10.660;2023-04-03T00:16:03;2.93;;;2.30;;
8982;SDS011;20979;59.850;10.660;2023-04-03T00:18:32;2.90;;;2.30;;
8982;SDS011;20979;59.850;10.660;2023-04-03T00:21:00;4.17;;;2.33;;
8982;SDS011;20979;59.850;10.660;2023-04-03T00:23:27;5.27;;;2.53;;
8982;SDS011;20979;59.850;10.660;2023-04-03T00:25:55;4.10;;;2.10;;
8982;SDS011;20979;59.850;10.660;2023-04-03T00:28:22;4.30;;;2.30;;
8982;SDS011;20979;59.850;10.660;2023-04-03T00:30:51;3.80;;;1.90;;
8982;SDS011;20979;59.850;10.660;2023-04-03T00:33:18;4.03;;;2.17;;
8982;SDS011;20979;59.850;10.660;2023-04-03T00:35:48;2.87;;;2.07;;
8982;SDS011;20979;59.850;10.660;2023-04-03T00:38:16;3.37;;;2.00;;
8982;SDS011;20979;59.850;10.660;2023-04-03T00:40:44;2.47;;;2.10;;
8982;SDS011;20979;59.850;10.660;2023-04-03T00:43:13;4.37;;;2.00;;
8982;SDS011;20979;59.850;10.660;2023-04-03T00:45:41;3.07;;;1.90;;
8982;SDS011;20979;59.850;10.660;2023-04-03T00:48:10;2.43;;;2.00;;
8982;SDS011;20979;59.850;10.660;2023-04-03T00:50:39;3.70;;;1.70;;
8982;SDS011;20979;59.850;10.660;2023-04-03T00:53:09;2.63;;;2.13;;
8982;SDS011;20979;59.850;10.660;2023-04-03T00:55:38;2.00;;;1.77;;
8982;SDS011;20979;59.850;10.660;2023-04-03T00:58:06;2.83;;;1.70;;
8982;SDS011;20979;59.850;10.660;2023-04-03T01:00:35;2.87;;;1.80;;
8982;SDS011;20979;59.850;10.660;2023-04-03T01:03:03;2.67;;;1.77;;
8982;SDS011;20979;59.850;10.660;2023-04-03T01:05:30;3.47;;;1.90;;
8982;SDS011;20979;59.850;10.660;2023-04-03T01:07:58;2.33;;;1.87;;
8982;SDS011;20979;59.850;10.660;2023-04-03T01:10:27;1.77;;;1.60;;
8982;SDS011;20979;59.850;10.660;2023-04-03T01:12:54;2.23;;;1.70;;
8982;SDS011;20979;59.850;10.660;2023-04-03T01:15:23;4.60;;;1.70;;
8982;SDS011;20979;59.850;10.660;2023-04-03T01:17:54;2.67;;;1.70;;
8982;SDS011;20979;59.850;10.660;2023-04-03T01:20:44;3.50;;;1.60;;
8982;SDS011;20979;59.850;10.660;2023-04-03T01:23:28;2.83;;;1.93;;
8982;SDS011;20979;59.850;10.660;2023-04-03T01:26:01;2.50;;;1.57;;
8982;SDS011;20979;59.850;10.660;2023-04-03T01:28:30;2.17;;;1.60;;
8982;SDS011;20979;59.850;10.660;2023-04-03T01:31:00;3.60;;;1.80;;
8982;SDS011;20979;59.850;10.660;2023-04-03T01:33:31;3.50;;;1.70;;
8982;SDS011;20979;59.850;10.660;2023-04-03T01:35:58;2.33;;;1.43;;
8982;SDS011;20979;59.850;10.660;2023-04-03T01:38:25;1.97;;;1.80;;
8982;SDS011;20979;59.850;10.660;2023-04-03T01:40:53;2.50;;;1.60;;
8982;SDS011;20979;59.850;10.660;2023-04-03T01:43:20;2.80;;;1.70;;
8982;SDS011;20979;59.850;10.660;2023-04-03T01:45:47;1.83;;;1.70;;
8982;SDS011;20979;59.850;10.660;2023-04-03T01:48:15;2.37;;;1.80;;
8982;SDS011;20979;59.850;10.660;2023-04-03T01:50:44;1.50;;;1.40;;
8982;SDS011;20979;59.850;10.660;2023-04-03T01:53:11;3.47;;;1.60;;
8982;SDS011;20979;59.850;10.660;2023-04-03T01:55:39;3.03;;;1.83;;
8982;SDS011;20979;59.850;10.660;2023-04-03T01:58:06;2.53;;;2.00;;
8982;SDS011;20979;59.850;10.660;2023-04-03T02:00:33;2.03;;;1.40;;
8982;SDS011;20979;59.850;10.660;2023-04-03T02:03:01;1.70;;;1.60;;
8982;SDS011;20979;59.850;10.660;2023-04-03T02:05:28;3.80;;;1.63;;
8982;SDS011;20979;59.850;10.660;2023-04-03T02:07:57;1.70;;;1.60;;
8982;SDS011;20979;59.850;10.660;2023-04-03T02:10:25;1.93;;;1.70;;
8982;SDS011;20979;59.850;10.660;2023-04-03T02:12:52;2.80;;;1.80;;
8982;SDS011;20979;59.850;10.660;2023-04-03T02:15:19;2.47;;;1.60;;
8982;SDS011;20979;59.850;10.660;2023-04-03T02:17:47;2.70;;;1.70;;
8982;SDS011;20979;59.850;10.660;2023-04-03T02:20:14;2.63;;;1.60;;
8982;SDS011;20979;59.850;10.660;2023-04-03T02:22:42;2.53;;;2.03;;
8982;SDS011;20979;59.850;10.660;2023-04-03T02:25:10;2.60;;;1.70;;
8982;SDS011;20979;59.850;10.660;2023-04-03T02:27:38;3.23;;;1.63;;
8982;SDS011;20979;59.850;10.660;2023-04-03T02:30:06;2.13;;;1.90;;
8982;SDS011;20979;59.850;10.660;2023-04-03T02:32:35;2.10;;;1.40;;
8982;SDS011;20979;59.850;10.660;2023-04-03T02:35:03;2.43;;;1.43;;
8982;SDS011;20979;59.850;10.660;2023-04-03T02:37:31;1.60;;;1.50;;
8982;SDS011;20979;59.850;10.660;2023-04-03T02:39:58;1.57;;;1.47;;
8982;SDS011;20979;59.850;10.660;2023-04-03T02:42:27;1.60;;;1.50;;
8982;SDS011;20979;59.850;10.660;2023-04-03T02:44:54;2.40;;;1.57;;
8982;SDS011;20979;59.850;10.660;2023-04-03T02:47:22;1.83;;;1.30;;
8982;SDS011;20979;59.850;10.660;2023-04-03T02:49:49;3.87;;;1.90;;
8982;SDS011;20979;59.850;10.660;2023-04-03T02:52:17;1.67;;;1.40;;
8982;SDS011;20979;59.850;10.660;2023-04-03T02:54:45;3.13;;;1.50;;
8982;SDS011;20979;59.850;10.660;2023-04-03T02:57:12;1.60;;;1.50;;
8982;SDS011;20979;59.850;10.660;2023-04-03T02:59:41;2.07;;;1.40;;
8982;SDS011;20979;59.850;10.660;2023-04-03T03:02:09;2.63;;;1.57;;
8982;SDS011;20979;59.850;10.660;2023-04-03T03:04:37;2.33;;;1.47;;
8982;SDS011;20979;59.850;10.660;2023-04-03T03:07:04;1.60;;;1.50;;
8982;SDS011;20979;59.850;10.660;2023-04-03T03:09:32;1.73;;;1.50;;
8982;SDS011;20979;59.850;10.660;2023-04-03T03:12:01;2.20;;;1.70;;
8982;SDS011;20979;59.850;10.660;2023-04-03T03:14:28;1.70;;;1.53;;
8982;SDS011;20979;59.850;10.660;2023-04-03T03:16:57;3.57;;;1.60;;
8982;SDS011;20979;59.850;10.660;2023-04-03T03:19:25;2.07;;;1.60;;
8982;SDS011;20979;59.850;10.660;2023-04-03T03:21:52;4.40;;;1.60;;
8982;SDS011;20979;59.850;10.660;2023-04-03T03:24:20;2.40;;;1.60;;
8982;SDS011;20979;59.850;10.660;2023-04-03T03:26:47;3.87;;;1.63;;
8982;SDS011;20979;59.850;10.660;2023-04-03T03:29:14;1.63;;;1.50;;
8982;SDS011;20979;59.850;10.660;2023-04-03T03:31:42;3.77;;;1.70;;
8982;SDS011;20979;59.850;10.660;2023-04-03T03:34:11;2.20;;;1.97;;
8982;SDS011;20979;59.850;10.660;2023-04-03T03:36:38;1.83;;;1.30;;
8982;SDS011;20979;59.850;10.660;2023-04-03T03:39:06;2.33;;;1.50;;
8982;SDS011;20979;59.850;10.660;2023-04-03T03:41:33;1.63;;;1.40;;
8982;SDS011;20979;59.850;10.660;2023-04-03T03:44:00;2.47;;;1.80;;
8982;SDS011;20979;59.850;10.660;2023-04-03T03:46:28;2.63;;;1.13;;
8982;SDS011;20979;59.850;10.660;2023-04-03T03:48:55;3.37;;;1.50;;
8982;SDS011;20979;59.850;10.660;2023-04-03T03:51:24;1.90;;;1.60;;
8982;SDS011;20979;59.850;10.660;2023-04-03T03:53:51;2.53;;;1.60;;
8982;SDS011;20979;59.850;10.660;2023-04-03T03:56:18;2.23;;;1.70;;
8982;SDS011;20979;59.850;10.660;2023-04-03T03:58:46;2.87;;;1.60;;
8982;SDS011;20979;59.850;10.660;2023-04-03T04:01:14;1.60;;;1.50;;
8982;SDS011;20979;59.850;10.660;2023-04-03T04:03:41;1.90;;;1.50;;
8982;SDS011;20979;59.850;10.660;2023-04-03T04:06:09;1.43;;;1.30;;
8982;SDS011;20979;59.850;10.660;2023-04-03T04:08:38;3.00;;;1.40;;
8982;SDS011;20979;59.850;10.660;2023-04-03T04:11:05;2.17;;;1.37;;
8982;SDS011;20979;59.850;10.660;2023-04-03T04:13:33;1.60;;;1.50;;
8982;SDS011;20979;59.850;10.660;2023-04-03T04:16:00;2.40;;;1.40;;
8982;SDS011;20979;59.850;10.660;2023-04-03T04:18:28;1.63;;;1.50;;
8982;SDS011;20979;59.850;10.660;2023-04-03T04:20:55;3.43;;;1.77;;
8982;SDS011;20979;59.850;10.660;2023-04-03T04:23:22;2.70;;;1.53;;
8982;SDS011;20979;59.850;10.660;2023-04-03T04:25:51;1.40;;;1.23;;
8982;SDS011;20979;59.850;10.660;2023-04-03T04:28:19;1.60;;;1.40;;
8982;SDS011;20979;59.850;10.660;2023-04-03T04:30:46;3.57;;;1.67;;
8982;SDS011;20979;59.850;10.660;2023-04-03T04:33:13;1.63;;;1.43;;
8982;SDS011;20979;59.850;10.660;2023-04-03T04:35:41;2.93;;;1.63;;
8982;SDS011;20979;59.850;10.660;2023-04-03T04:38:09;1.70;;;1.30;;
8982;SDS011;20979;59.850;10.660;2023-04-03T04:40:36;2.80;;;1.40;;
8982;SDS011;20979;59.850;10.660;2023-04-03T04:43:05;2.37;;;1.50;;
8982;SDS011;20979;59.850;10.660;2023-04-03T04:45:32;1.97;;;1.73;;
8982;SDS011;20979;59.850;10.660;2023-04-03T04:47:59;2.00;;;1.63;;
8982;SDS011;20979;59.850;10.660;2023-04-03T04:50:27;1.80;;;1.50;;
8982;SDS011;20979;59.850;10.660;2023-04-03T04:52:54;2.63;;;1.63;;
8982;SDS011;20979;59.850;10.660;2023-04-03T04:55:22;1.63;;;1.40;;
8982;SDS011;20979;59.850;10.660;2023-04-03T04:57:49;2.73;;;1.50;;
8982;SDS011;20979;59.850;10.660;2023-04-03T05:00:18;1.93;;;1.40;;
8982;SDS011;20979;59.850;10.660;2023-04-03T05:02:46;3.97;;;1.60;;
8982;SDS011;20979;59.850;10.660;2023-04-03T05:05:13;2.70;;;1.37;;
8982;SDS011;20979;59.850;10.660;2023-04-03T05:07:40;2.77;;;1.60;;
8982;SDS011;20979;59.850;10.660;2023-04-03T05:10:08;3.30;;;1.60;;
8982;SDS011;20979;59.850;10.660;2023-04-03T05:12:36;6.00;;;2.00;;
8982;SDS011;20979;59.850;10.660;2023-04-03T05:15:04;4.77;;;1.90;;
8982;SDS011;20979;59.850;10.660;2023-04-03T05:17:33;7.37;;;1.93;;
8982;SDS011;20979;59.850;10.660;2023-04-03T05:20:00;4.03;;;1.67;;
8982;SDS011;20979;59.850;10.660;2023-04-03T05:22:28;3.13;;;1.67;;
8982;SDS011;20979;59.850;10.660;2023-04-03T05:24:55;2.57;;;1.73;;
8982;SDS011;20979;59.850;10.660;2023-04-03T05:27:22;1.70;;;1.50;;
8982;SDS011;20979;59.850;10.660;2023-04-03T05:29:50;2.33;;;1.60;;
8982;SDS011;20979;59.850;10.660;2023-04-03T05:32:17;2.13;;;1.60;;
8982;SDS011;20979;59.850;10.660;2023-04-03T05:34:46;4.63;;;1.70;;
8982;SDS011;20979;59.850;10.660;2023-04-03T05:37:14;2.77;;;1.60;;
8982;SDS011;20979;59.850;10.660;2023-04-03T05:39:41;2.67;;;1.70;;
8982;SDS011;20979;59.850;10.660;2023-04-03T05:42:08;3.50;;;1.40;;
8982;SDS011;20979;59.850;10.660;2023-04-03T05:44:36;2.70;;;1.50;;
8982;SDS011;20979;59.850;10.660;2023-04-03T05:47:04;4.17;;;1.60;;
8982;SDS011;20979;59.850;10.660;2023-04-03T05:49:32;2.00;;;1.40;;
8982;SDS011;20979;59.850;10.660;2023-04-03T05:52:00;2.97;;;2.00;;
8982;SDS011;20979;59.850;10.660;2023-04-03T05:54:28;3.30;;;1.50;;
8982;SDS011;20979;59.850;10.660;2023-04-03T05:56:56;2.00;;;1.90;;
8982;SDS011;20979;59.850;10.660;2023-04-03T05:59:23;3.10;;;1.90;;
8982;SDS011;20979;59.850;10.660;2023-04-03T06:01:51;4.20;;;2.37;;
8982;SDS011;20979;59.850;10.660;2023-04-03T06:04:18;3.43;;;2.43;;
8982;SDS011;20979;59.850;10.660;2023-04-03T06:06:46;4.80;;;2.20;;
8982;SDS011;20979;59.850;10.660;2023-04-03T06:09:15;4.10;;;2.33;;
8982;SDS011;20979;59.850;10.660;2023-04-03T06:11:43;3.13;;;2.00;;
8982;SDS011;20979;59.850;10.660;2023-04-03T06:14:11;5.23;;;2.13;;
8982;SDS011;20979;59.850;10.660;2023-04-03T06:16:38;3.27;;;1.90;;
8982;SDS011;20979;59.850;10.660;2023-04-03T06:19:06;3.83;;;2.60;;
8982;SDS011;20979;59.850;10.660;2023-04-03T06:21:33;9.03;;;4.60;;
8982;SDS011;20979;59.850;10.660;2023-04-03T06:24:01;11.10;;;4.97;;
8982;SDS011;20979;59.850;10.660;2023-04-03T06:26:30;6.00;;;3.20;;
8982;SDS011;20979;59.850;10.660;2023-04-03T06:28:58;3.93;;;2.10;;
8982;SDS011;20979;59.850;10.660;2023-04-03T06:31:25;2.97;;;1.97;;
8982;SDS011;20979;59.850;10.660;2023-04-03T06:33:53;2.23;;;1.60;;
8982;SDS011;20979;59.850;10.660;2023-04-03T06:36:21;2.03;;;1.50;;
8982;SDS011;20979;59.850;10.660;2023-04-03T06:38:49;1.90;;;1.40;;
8982;SDS011;20979;59.850;10.660;2023-04-03T06:41:16;2.90;;;1.60;;
8982;SDS011;20979;59.850;10.660;2023-04-03T06:43:45;2.40;;;1.50;;
8982;SDS011;20979;59.850;10.660;2023-04-03T06:46:14;3.37;;;1.33;;
8982;SDS011;20979;59.850;10.660;2023-04-03T06:48:42;4.50;;;1.43;;
8982;SDS011;20979;59.850;10.660;2023-04-03T06:51:15;2.60;;;1.43;;
8982;SDS011;20979;59.850;10.660;2023-04-03T06:53:45;2.80;;;1.47;;
8982;SDS011;20979;59.850;10.660;2023-04-03T06:56:12;2.87;;;1.20;;
8982;SDS011;20979;59.850;10.660;2023-04-03T06:58:40;3.37;;;1.27;;
8982;SDS011;20979;59.850;10.660;2023-04-03T07:01:09;2.97;;;1.20;;
8982;SDS011;20979;59.850;10.660;2023-04-03T07:03:37;6.63;;;1.40;;
8982;SDS011;20979;59.850;10.660;2023-04-03T07:06:05;2.90;;;1.23;;
8982;SDS011;20979;59.850;10.660;2023-04-03T07:08:33;1.77;;;1.47;;
8982;SDS011;20979;59.850;10.660;2023-04-03T07:11:00;1.10;;;1.00;;
8982;SDS011;20979;59.850;10.660;2023-04-03T07:13:28;1.90;;;1.20;;
8982;SDS011;20979;59.850;10.660;2023-04-03T07:15:55;3.37;;;1.53;;
8982;SDS011;20979;59.850;10.660;2023-04-03T07:18:24;3.00;;;1.37;;
8982;SDS011;20979;59.850;10.660;2023-04-03T07:20:52;3.07;;;1.10;;
8982;SDS011;20979;59.850;10.660;2023-04-03T07:23:19;2.47;;;1.30;;
8982;SDS011;20979;59.850;10.660;2023-04-03T07:25:48;5.27;;;1.47;;
8982;SDS011;20979;59.850;10.660;2023-04-03T07:28:16;1.93;;;1.30;;
8982;SDS011;20979;59.850;10.660;2023-04-03T07:30:44;2.03;;;1.30;;
8982;SDS011;20979;59.850;10.660;2023-04-03T07:33:11;2.30;;;1.13;;
8982;SDS011;20979;59.850;10.660;2023-04-03T07:35:41;2.60;;;1.37;;
8982;SDS011;20979;59.850;10.660;2023-04-03T07:38:08;2.30;;;1.40;;
8982;SDS011;20979;59.850;10.660;2023-04-03T07:40:36;3.10;;;1.30;;
8982;SDS011;20979;59.850;10.660;2023-04-03T07:43:04;2.87;;;1.43;;
8982;SDS011;20979;59.850;10.660;2023-04-03T07:45:31;2.53;;;1.50;;
8982;SDS011;20979;59.850;10.660;2023-04-03T07:47:59;2.27;;;1.47;;
8982;SDS011;20979;59.850;10.660;2023-04-03T07:50:27;2.47;;;1.43;;
8982;SDS011;20979;59.850;10.660;2023-04-03T07:52:56;5.50;;;1.50;;
8982;SDS011;20979;59.850;10.660;2023-04-03T07:55:24;2.10;;;1.40;;
8982;SDS011;20979;59.850;10.660;2023-04-03T07:57:52;3.50;;;1.50;;
8982;SDS011;20979;59.850;10.660;2023-04-03T08:00:20;2.53;;;1.70;;
8982;SDS011;20979;59.850;10.660;2023-04-03T08:02:48;2.80;;;1.13;;
8982;SDS011;20979;59.850;10.660;2023-04-03T08:05:17;2.53;;;1.40;;
8982;SDS011;20979;59.850;10.660;2023-04-03T08:07:44;3.10;;;1.53;;
8982;SDS011;20979;59.850;10.660;2023-04-03T08:10:13;4.43;;;1.40;;
8982;SDS011;20979;59.850;10.660;2023-04-03T08:12:41;1.50;;;1.37;;
8982;SDS011;20979;59.850;10.660;2023-04-03T08:15:09;6.67;;;1.57;;
8982;SDS011;20979;59.850;10.660;2023-04-03T08:17:36;4.60;;;1.67;;
8982;SDS011;20979;59.850;10.660;2023-04-03T08:20:04;2.20;;;1.37;;
8982;SDS011;20979;59.850;10.660;2023-04-03T08:22:33;2.50;;;1.50;;
8982;SDS011;20979;59.850;10.660;2023-04-03T08:25:00;1.93;;;1.30;;
8982;SDS011;20979;59.850;10.660;2023-04-03T08:27:29;2.50;;;1.40;;
8982;SDS011;20979;59.850;10.660;2023-04-03T08:29:56;2.03;;;1.50;;
8982;SDS011;20979;59.850;10.660;2023-04-03T08:32:25;2.43;;;1.60;;
8982;SDS011;20979;59.850;10.660;2023-04-03T08:34:53;3.30;;;1.67;;
8982;SDS011;20979;59.850;10.660;2023-04-03T08:37:20;1.70;;;1.50;;
8982;SDS011;20979;59.850;10.660;2023-04-03T08:39:48;1.47;;;1.33;;
8982;SDS011;20979;59.850;10.660;2023-04-03T08:42:16;1.90;;;1.43;;
8982;SDS011;20979;59.850;10.660;2023-04-03T08:44:47;2.40;;;1.70;;
8982;SDS011;20979;59.850;10.660;2023-04-03T08:47:18;2.27;;;1.60;;
8982;SDS011;20979;59.850;10.660;2023-04-03T08:49:51;4.53;;;1.67;;
8982;SDS011;20979;59.850;10.660;2023-04-03T08:52:20;1.77;;;1.67;;
8982;SDS011;20979;59.850;10.660;2023-04-03T08:54:50;4.80;;;1.70;;
8982;SDS011;20979;59.850;10.660;2023-04-03T08:57:20;3.07;;;1.70;;
8982;SDS011;20979;59.850;10.660;2023-04-03T08:59:53;1.40;;;1.30;;
8982;SDS011;20979;59.850;10.660;2023-04-03T09:02:23;1.60;;;1.43;;
8982;SDS011;20979;59.850;10.660;2023-04-03T09:04:51;2.10;;;1.43;;
8982;SDS011;20979;59.850;10.660;2023-04-03T09:07:20;3.00;;;1.87;;
8982;SDS011;20979;59.850;10.660;2023-04-03T09:09:49;2.03;;;1.70;;
8982;SDS011;20979;59.850;10.660;2023-04-03T09:12:19;3.73;;;2.10;;
8982;SDS011;20979;59.850;10.660;2023-04-03T09:14:51;2.30;;;1.67;;
8982;SDS011;20979;59.850;10.660;2023-04-03T09:17:24;4.37;;;1.73;;
8982;SDS011;20979;59.850;10.660;2023-04-03T09:19:56;2.90;;;1.60;;
8982;SDS011;20979;59.850;10.660;2023-04-03T09:22:25;2.10;;;1.70;;
8982;SDS011;20979;59.850;10.660;2023-04-03T09:24:55;2.37;;;1.63;;
8982;SDS011;20979;59.850;10.660;2023-04-03T09:27:24;3.10;;;1.70;;
8982;SDS011;20979;59.850;10.660;2023-04-03T09:29:52;2.37;;;1.70;;
8982;SDS011;20979;59.850;10.660;2023-04-03T09:32:25;4.00;;;1.90;;
8982;SDS011;20979;59.850;10.660;2023-04-03T09:34:52;2.60;;;1.80;;
8982;SDS011;20979;59.850;10.660;2023-04-03T09:40:03;4.30;;;1.70;;
8982;SDS011;20979;59.850;10.660;2023-04-03T09:42:31;1.73;;;1.57;;
8982;SDS011;20979;59.850;10.660;2023-04-03T09:45:00;2.07;;;1.70;;
8982;SDS011;20979;59.850;10.660;2023-04-03T09:47:29;2.30;;;1.60;;
8982;SDS011;20979;59.850;10.660;2023-04-03T09:52:53;1.87;;;1.63;;
8982;SDS011;20979;59.850;10.660;2023-04-03T09:55:20;1.73;;;1.57;;
8982;SDS011;20979;59.850;10.660;2023-04-03T09:57:52;2.87;;;1.40;;
8982;SDS011;20979;59.850;10.660;2023-04-03T10:00:23;2.07;;;1.53;;
8982;SDS011;20979;59.850;10.660;2023-04-03T10:02:53;2.10;;;1.47;;
8982;SDS011;20979;59.850;10.660;2023-04-03T10:05:29;2.70;;;1.43;;
8982;SDS011;20979;59.850;10.660;2023-04-03T10:08:07;2.07;;;1.70;;
8982;SDS011;20979;59.850;10.660;2023-04-03T10:10:35;2.53;;;1.30;;
8982;SDS011;20979;59.850;10.660;2023-04-03T10:13:03;3.07;;;1.67;;
8982;SDS011;20979;59.850;10.660;2023-04-03T10:15:32;2.93;;;1.60;;
8982;SDS011;20979;59.850;10.660;2023-04-03T10:18:05;2.23;;;1.50;;
8982;SDS011;20979;59.850;10.660;2023-04-03T10:20:34;3.07;;;1.60;;
8982;SDS011;20979;59.850;10.660;2023-04-03T10:23:12;3.10;;;1.47;;
8982;SDS011;20979;59.850;10.660;2023-04-03T10:25:43;3.63;;;1.80;;
8982;SDS011;20979;59.850;10.660;2023-04-03T10:28:14;2.37;;;1.60;;
8982;SDS011;20979;59.850;10.660;2023-04-03T10:30:46;1.83;;;1.30;;
8982;SDS011;20979;59.850;10.660;2023-04-03T10:33:22;3.97;;;1.60;;
8982;SDS011;20979;59.850;10.660;2023-04-03T10:35:56;3.57;;;1.80;;
8982;SDS011;20979;59.850;10.660;2023-04-03T10:38:28;2.40;;;1.73;;
8982;SDS011;20979;59.850;10.660;2023-04-03T10:40:59;3.03;;;1.60;;
8982;SDS011;20979;59.850;10.660;2023-04-03T10:43:30;3.33;;;1.57;;
8982;SDS011;20979;59.850;10.660;2023-04-03T10:46:01;3.03;;;1.60;;
8982;SDS011;20979;59.850;10.660;2023-04-03T10:48:33;3.50;;;1.70;;
8982;SDS011;20979;59.850;10.660;2023-04-03T10:51:06;2.10;;;1.70;;
8982;SDS011;20979;59.850;10.660;2023-04-03T10:53:39;2.33;;;1.50;;
8982;SDS011;20979;59.850;10.660;2023-04-03T10:56:12;1.93;;;1.73;;
8982;SDS011;20979;59.850;10.660;2023-04-03T10:58:43;4.60;;;1.50;;
8982;SDS011;20979;59.850;10.660;2023-04-03T11:01:12;3.60;;;1.83;;
8982;SDS011;20979;59.850;10.660;2023-04-03T11:03:42;3.17;;;1.73;;
8982;SDS011;20979;59.850;10.660;2023-04-03T11:06:11;2.63;;;1.43;;
8982;SDS011;20979;59.850;10.660;2023-04-03T11:08:42;2.57;;;1.87;;
8982;SDS011;20979;59.850;10.660;2023-04-03T11:11:12;2.27;;;1.60;;
8982;SDS011;20979;59.850;10.660;2023-04-03T11:13:54;4.37;;;1.30;;
8982;SDS011;20979;59.850;10.660;2023-04-03T11:16:24;3.77;;;1.70;;
8982;SDS011;20979;59.850;10.660;2023-04-03T11:18:54;7.80;;;2.00;;
8982;SDS011;20979;59.850;10.660;2023-04-03T11:21:24;4.10;;;1.67;;
8982;SDS011;20979;59.850;10.660;2023-04-03T11:23:55;4.37;;;1.77;;
8982;SDS011;20979;59.850;10.660;2023-04-03T11:26:26;3.63;;;1.60;;
8982;SDS011;20979;59.850;10.660;2023-04-03T11:28:59;3.00;;;1.60;;
8982;SDS011;20979;59.850;10.660;2023-04-03T11:34:19;3.80;;;1.60;;
8982;SDS011;20979;59.850;10.660;2023-04-03T11:36:53;1.87;;;1.20;;
8982;SDS011;20979;59.850;10.660;2023-04-03T11:39:22;2.07;;;1.50;;
8982;SDS011;20979;59.850;10.660;2023-04-03T11:41:51;3.07;;;1.70;;
8982;SDS011;20979;59.850;10.660;2023-04-03T11:44:29;4.90;;;1.77;;
8982;SDS011;20979;59.850;10.660;2023-04-03T11:46:58;2.77;;;1.90;;
8982;SDS011;20979;59.850;10.660;2023-04-03T11:52:13;6.87;;;2.10;;
8982;SDS011;20979;59.850;10.660;2023-04-03T11:55:01;3.07;;;1.60;;
8982;SDS011;20979;59.850;10.660;2023-04-03T12:08:55;4.03;;;1.53;;
8982;SDS011;20979;59.850;10.660;2023-04-03T12:11:24;1.87;;;1.20;;
8982;SDS011;20979;59.850;10.660;2023-04-03T12:14:03;2.03;;;1.23;;
8982;SDS011;20979;59.850;10.660;2023-04-03T12:16:32;2.87;;;1.50;;
8982;SDS011;20979;59.850;10.660;2023-04-03T12:19:31;5.40;;;1.60;;
8982;SDS011;20979;59.850;10.660;2023-04-03T12:22:15;4.30;;;1.47;;
8982;SDS011;20979;59.850;10.660;2023-04-03T12:24:48;3.33;;;1.40;;
8982;SDS011;20979;59.850;10.660;2023-04-03T12:27:24;1.90;;;1.23;;
8982;SDS011;20979;59.850;10.660;2023-04-03T12:29:54;2.13;;;1.40;;
8982;SDS011;20979;59.850;10.660;2023-04-03T12:32:26;2.83;;;1.30;;
8982;SDS011;20979;59.850;10.660;2023-04-03T12:35:05;2.80;;;1.37;;
8982;SDS011;20979;59.850;10.660;2023-04-03T12:37:40;2.97;;;1.40;;
8982;SDS011;20979;59.850;10.660;2023-04-03T12:40:11;4.03;;;1.40;;
8982;SDS011;20979;59.850;10.660;2023-04-03T12:42:55;1.97;;;1.30;;
8982;SDS011;20979;59.850;10.660;2023-04-03T12:45:37;3.03;;;1.70;;
8982;SDS011;20979;59.850;10.660;2023-04-03T12:48:08;3.57;;;1.33;;
8982;SDS011;20979;59.850;10.660;2023-04-03T12:50:39;1.97;;;1.47;;
8982;SDS011;20979;59.850;10.660;2023-04-03T12:53:11;1.80;;;1.40;;
8982;SDS011;20979;59.850;10.660;2023-04-03T12:55:41;1.67;;;1.27;;
8982;SDS011;20979;59.850;10.660;2023-04-03T12:58:16;4.10;;;1.40;;
8982;SDS011;20979;59.850;10.660;2023-04-03T13:00:44;3.37;;;1.53;;
8982;SDS011;20979;59.850;10.660;2023-04-03T13:03:20;2.93;;;1.40;;
8982;SDS011;20979;59.850;10.660;2023-04-03T13:05:48;3.57;;;1.40;;
8982;SDS011;20979;59.850;10.660;2023-04-03T13:08:16;4.27;;;1.47;;
8982;SDS011;20979;59.850;10.660;2023-04-03T13:10:52;2.53;;;1.30;;
8982;SDS011;20979;59.850;10.660;2023-04-03T13:13:20;3.03;;;1.90;;
8982;SDS011;20979;59.850;10.660;2023-04-03T13:15:48;2.80;;;1.63;;
8982;SDS011;20979;59.850;10.660;2023-04-03T13:18:21;2.53;;;1.60;;
8982;SDS011;20979;59.850;10.660;2023-04-03T13:20:49;3.00;;;1.40;;
8982;SDS011;20979;59.850;10.660;2023-04-03T13:23:17;4.67;;;1.60;;
8982;SDS011;20979;59.850;10.660;2023-04-03T13:25:45;2.40;;;1.50;;
8982;SDS011;20979;59.850;10.660;2023-04-03T13:28:15;3.77;;;1.50;;
8982;SDS011;20979;59.850;10.660;2023-04-03T13:30:53;2.10;;;1.40;;
8982;SDS011;20979;59.850;10.660;2023-04-03T13:33:23;2.30;;;1.40;;
8982;SDS011;20979;59.850;10.660;2023-04-03T13:35:54;2.97;;;1.43;;
8982;SDS011;20979;59.850;10.660;2023-04-03T13:38:23;4.93;;;1.77;;
8982;SDS011;20979;59.850;10.660;2023-04-03T13:40:52;4.23;;;1.60;;
8982;SDS011;20979;59.850;10.660;2023-04-03T13:43:23;1.37;;;1.13;;
8982;SDS011;20979;59.850;10.660;2023-04-03T13:45:55;4.37;;;1.50;;
8982;SDS011;20979;59.850;10.660;2023-04-03T13:48:23;4.43;;;1.57;;
8982;SDS011;20979;59.850;10.660;2023-04-03T13:50:55;2.27;;;1.70;;
8982;SDS011;20979;59.850;10.660;2023-04-03T13:53:23;3.10;;;1.63;;
8982;SDS011;20979;59.850;10.660;2023-04-03T13:55:56;2.77;;;1.67;;
8982;SDS011;20979;59.850;10.660;2023-04-03T13:58:25;2.73;;;1.50;;
8982;SDS011;20979;59.850;10.660;2023-04-03T14:00:54;4.30;;;1.40;;
8982;SDS011;20979;59.850;10.660;2023-04-03T14:03:23;2.97;;;1.73;;
8982;SDS011;20979;59.850;10.660;2023-04-03T14:05:51;2.47;;;1.33;;
8982;SDS011;20979;59.850;10.660;2023-04-03T14:08:19;2.83;;;1.57;;
8982;SDS011;20979;59.850;10.660;2023-04-03T14:10:46;1.87;;;1.50;;
8982;SDS011;20979;59.850;10.660;2023-04-03T14:13:15;1.53;;;1.37;;
8982;SDS011;20979;59.850;10.660;2023-04-03T14:15:44;3.97;;;1.53;;
8982;SDS011;20979;59.850;10.660;2023-04-03T14:18:14;3.63;;;1.67;;
8982;SDS011;20979;59.850;10.660;2023-04-03T14:20:42;2.60;;;1.37;;
8982;SDS011;20979;59.850;10.660;2023-04-03T14:23:10;2.97;;;1.20;;
8982;SDS011;20979;59.850;10.660;2023-04-03T14:25:38;3.23;;;1.60;;
8982;SDS011;20979;59.850;10.660;2023-04-03T14:28:12;4.33;;;1.47;;
8982;SDS011;20979;59.850;10.660;2023-04-03T14:30:41;2.27;;;1.63;;
8982;SDS011;20979;59.850;10.660;2023-04-03T14:33:11;2.90;;;1.40;;
8982;SDS011;20979;59.850;10.660;2023-04-03T14:35:39;2.27;;;1.47;;
8982;SDS011;20979;59.850;10.660;2023-04-03T14:38:12;2.20;;;1.47;;
8982;SDS011;20979;59.850;10.660;2023-04-03T14:40:44;2.53;;;1.40;;
8982;SDS011;20979;59.850;10.660;2023-04-03T14:43:12;2.47;;;1.50;;
8982;SDS011;20979;59.850;10.660;2023-04-03T14:45:40;4.37;;;1.50;;
8982;SDS011;20979;59.850;10.660;2023-04-03T14:48:17;3.17;;;1.30;;
8982;SDS011;20979;59.850;10.660;2023-04-03T14:50:45;4.80;;;1.30;;
8982;SDS011;20979;59.850;10.660;2023-04-03T14:53:18;2.17;;;1.10;;
8982;SDS011;20979;59.850;10.660;2023-04-03T14:55:48;2.23;;;1.20;;
8982;SDS011;20979;59.850;10.660;2023-04-03T14:58:19;3.47;;;1.37;;
8982;SDS011;20979;59.850;10.660;2023-04-03T15:00:47;3.73;;;1.70;;
8982;SDS011;20979;59.850;10.660;2023-04-03T15:03:15;3.80;;;1.40;;
8982;SDS011;20979;59.850;10.660;2023-04-03T15:05:45;3.07;;;1.50;;
8982;SDS011;20979;59.850;10.660;2023-04-03T15:08:17;2.23;;;1.30;;
8982;SDS011;20979;59.850;10.660;2023-04-03T15:10:46;1.73;;;1.20;;
8982;SDS011;20979;59.850;10.660;2023-04-03T15:13:14;3.00;;;1.47;;
8982;SDS011;20979;59.850;10.660;2023-04-03T15:15:41;3.10;;;1.37;;
8982;SDS011;20979;59.850;10.660;2023-04-03T15:18:14;2.77;;;1.43;;
8982;SDS011;20979;59.850;10.660;2023-04-03T15:20:42;3.50;;;1.20;;
8982;SDS011;20979;59.850;10.660;2023-04-03T15:23:12;1.63;;;1.20;;